createdAt,value
2018-02-24T00:00:48.233Z,13.23
2018-02-24T00:03:16.521Z,14.05
2018-02-24T00:05:44.783Z,13.25
2018-02-24T00:08:13.096Z,14.05
2018-02-24T00:10:41.374Z,15.45
2018-02-24T00:13:09.634Z,13.87
2018-02-24T00:15:37.918Z,14.55
2018-02-24T00:18:07.199Z,13.67
2018-02-24T00:20:35.455Z,15.92
2018-02-24T00:23:03.747Z,14.37
2018-02-24T00:25:32.011Z,13.30
2018-02-24T00:28:00.257Z,15.10
2018-02-24T00:30:28.546Z,15.10
2018-02-24T00:32:56.826Z,13.90
2018-02-24T00:35:25.132Z,14.18
2018-02-24T00:37:53.418Z,15.25
2018-02-24T00:40:21.741Z,16.02
2018-02-24T00:42:50.060Z,16.23
2018-02-24T00:45:18.439Z,15.50
2018-02-24T00:47:46.750Z,16.28
2018-02-24T00:50:15.069Z,15.78
2018-02-24T00:52:43.345Z,16.95
2018-02-24T00:55:11.636Z,17.73
2018-02-24T00:57:39.903Z,15.73
2018-02-24T01:00:08.254Z,15.62
2018-02-24T01:02:36.537Z,17.17
2018-02-24T01:05:05.600Z,14.52
2018-02-24T01:07:33.856Z,15.35
2018-02-24T01:10:02.106Z,15.38
2018-02-24T01:12:30.441Z,17.78
2018-02-24T01:14:58.739Z,16.05
2018-02-24T01:17:27.009Z,16.78
2018-02-24T01:19:55.284Z,17.67
2018-02-24T01:22:23.587Z,15.15
2018-02-24T01:24:51.905Z,15.02
2018-02-24T01:27:20.204Z,15.63
2018-02-24T01:29:48.498Z,16.12
2018-02-24T01:32:16.769Z,17.77
2018-02-24T01:34:44.285Z,14.78
2018-02-24T01:37:12.578Z,15.02
2018-02-24T01:39:40.830Z,18.70
2018-02-24T01:42:09.106Z,15.37
2018-02-24T01:44:37.403Z,16.98
2018-02-24T01:47:06.562Z,16.05
2018-02-24T01:49:36.137Z,16.97
2018-02-24T01:52:03.636Z,17.20
2018-02-24T01:54:32.890Z,16.90
2018-02-24T01:57:01.234Z,14.80
2018-02-24T01:59:29.588Z,17.67
2018-02-24T02:01:57.956Z,16.85
2018-02-24T02:04:29.380Z,16.47
2018-02-24T02:06:57.674Z,16.02
2018-02-24T02:09:25.935Z,18.65
2018-02-24T02:11:54.194Z,15.78
2018-02-24T02:14:22.482Z,15.77
2018-02-24T02:16:50.730Z,16.78
2018-02-24T02:19:19.026Z,17.13
2018-02-24T02:21:47.328Z,14.87
2018-02-24T02:24:15.595Z,15.12
2018-02-24T02:26:43.897Z,16.38
2018-02-24T02:29:12.166Z,17.37
2018-02-24T02:31:40.477Z,18.20
2018-02-24T02:34:08.744Z,16.40
2018-02-24T02:36:37.018Z,16.42
2018-02-24T02:39:05.302Z,14.93
2018-02-24T02:41:33.587Z,15.85
2018-02-24T02:44:01.842Z,15.33
2018-02-24T02:46:29.359Z,16.58
2018-02-24T02:48:57.614Z,16.27
2018-02-24T02:51:25.894Z,15.22
2018-02-24T02:53:54.182Z,16.57
2018-02-24T02:56:22.486Z,14.15
2018-02-24T02:58:50.765Z,15.88
2018-02-24T03:01:19.090Z,16.67
2018-02-24T03:03:47.368Z,15.82
2018-02-24T03:06:15.641Z,15.48
2018-02-24T03:08:43.935Z,15.03
2018-02-24T03:11:12.195Z,16.02
2018-02-24T03:13:40.495Z,18.28
2018-02-24T03:16:08.763Z,14.92
2018-02-24T03:18:37.055Z,16.00
2018-02-24T03:21:05.334Z,14.93
2018-02-24T03:23:33.585Z,14.50
2018-02-24T03:26:01.887Z,16.05
2018-02-24T03:28:30.182Z,15.70
2018-02-24T03:30:58.445Z,16.08
2018-02-24T03:33:26.742Z,14.95
2018-02-24T03:35:55.031Z,14.92
2018-02-24T03:38:23.299Z,14.82
2018-02-24T03:40:51.598Z,16.03
2018-02-24T03:43:19.903Z,15.98
2018-02-24T03:45:48.327Z,15.72
2018-02-24T03:48:16.615Z,15.62
2018-02-24T03:50:44.876Z,15.63
2018-02-24T03:53:13.194Z,15.92
2018-02-24T03:55:41.467Z,14.50
2018-02-24T03:58:09.769Z,16.55
2018-02-24T04:00:37.298Z,14.78
2018-02-24T04:03:06.595Z,20.00
2018-02-24T04:05:36.140Z,13.70
2018-02-24T04:08:04.411Z,17.10
2018-02-24T04:10:32.680Z,15.87
2018-02-24T04:13:00.975Z,17.97
2018-02-24T04:15:29.234Z,15.08
2018-02-24T04:17:57.527Z,17.33
2018-02-24T04:20:25.819Z,16.40
2018-02-24T04:22:54.142Z,17.08
2018-02-24T04:25:22.440Z,17.13
2018-02-24T04:27:50.719Z,15.47
2018-02-24T04:30:19.033Z,14.95
2018-02-24T04:32:47.331Z,16.32
2018-02-24T04:35:14.837Z,17.08
2018-02-24T04:37:43.137Z,17.53
2018-02-24T04:40:11.394Z,15.22
2018-02-24T04:42:38.933Z,18.02
2018-02-24T04:45:07.209Z,15.48
2018-02-24T04:47:35.503Z,16.98
2018-02-24T04:50:03.805Z,16.75
2018-02-24T04:52:32.087Z,16.43
2018-02-24T04:55:02.312Z,16.97
2018-02-24T04:57:30.582Z,16.37
2018-02-24T04:59:58.866Z,14.87
2018-02-24T05:02:27.160Z,15.30
2018-02-24T05:04:55.430Z,14.57
2018-02-24T05:07:22.981Z,16.05
2018-02-24T05:09:51.297Z,14.18
2018-02-24T05:12:19.640Z,15.77
2018-02-24T05:14:47.947Z,15.82
2018-02-24T05:17:15.475Z,16.02
2018-02-24T05:19:43.748Z,14.60
2018-02-24T05:22:11.278Z,15.13
2018-02-24T05:24:38.768Z,15.40
2018-02-24T05:27:07.053Z,14.77
2018-02-24T05:29:35.306Z,16.07
2018-02-24T05:32:03.602Z,16.05
2018-02-24T05:34:31.879Z,16.55
2018-02-24T05:37:00.179Z,17.18
2018-02-24T05:39:28.460Z,16.18
2018-02-24T05:41:57.035Z,17.40
2018-02-24T05:44:25.302Z,18.45
2018-02-24T05:46:53.567Z,14.00
2018-02-24T05:49:21.869Z,14.03
2018-02-24T05:51:50.184Z,15.33
2018-02-24T05:54:18.439Z,14.35
2018-02-24T05:56:46.738Z,15.95
2018-02-24T05:59:15.022Z,16.67
2018-02-24T06:01:43.406Z,13.55
2018-02-24T06:04:11.680Z,14.15
2018-02-24T06:06:39.214Z,16.32
2018-02-24T06:09:07.632Z,13.98
2018-02-24T06:11:37.150Z,14.42
2018-02-24T06:14:06.451Z,14.75
2018-02-24T06:16:35.731Z,16.20
2018-02-24T06:19:03.989Z,16.75
2018-02-24T06:21:32.300Z,17.67
2018-02-24T06:23:59.797Z,13.42
2018-02-24T06:26:28.104Z,15.32
2018-02-24T06:28:56.389Z,15.93
2018-02-24T06:31:24.660Z,15.28
2018-02-24T06:33:52.974Z,15.50
2018-02-24T06:36:21.235Z,14.88
2018-02-24T06:38:49.527Z,12.50
2018-02-24T06:41:17.842Z,16.15
2018-02-24T06:43:46.147Z,15.57
2018-02-24T06:46:13.666Z,14.58
2018-02-24T06:48:41.939Z,15.90
2018-02-24T06:51:10.235Z,14.53
2018-02-24T06:53:38.500Z,14.50
2018-02-24T06:56:06.796Z,17.55
2018-02-24T06:58:35.965Z,15.62
2018-02-24T07:01:05.037Z,13.62
2018-02-24T07:03:33.310Z,13.23
2018-02-24T07:06:01.625Z,14.37
2018-02-24T07:08:29.895Z,16.73
2018-02-24T07:10:59.069Z,14.43
2018-02-24T07:13:27.368Z,13.87
2018-02-24T07:15:55.651Z,16.38
2018-02-24T07:18:23.984Z,14.32
2018-02-24T07:20:52.222Z,14.05
2018-02-24T07:23:20.486Z,13.28
2018-02-24T07:25:48.770Z,13.82
2018-02-24T07:28:17.047Z,13.50
2018-02-24T07:30:44.578Z,15.65
2018-02-24T07:33:12.851Z,13.32
2018-02-24T07:35:41.151Z,14.53
2018-02-24T07:38:09.415Z,15.70
2018-02-24T07:40:37.717Z,13.62
2018-02-24T07:43:05.684Z,13.92
2018-02-24T07:45:33.939Z,15.32
2018-02-24T07:48:02.236Z,13.58
2018-02-24T07:50:30.533Z,13.85
2018-02-24T07:52:58.028Z,13.35
2018-02-24T07:55:26.325Z,12.97
2018-02-24T07:57:54.623Z,14.20
2018-02-24T08:00:22.880Z,14.40
2018-02-24T08:02:51.179Z,16.45
2018-02-24T08:05:19.446Z,13.73
2018-02-24T08:07:47.738Z,14.48
2018-02-24T08:10:16.054Z,13.92
2018-02-24T08:12:44.338Z,13.67
2018-02-24T08:15:12.598Z,13.78
2018-02-24T08:17:40.902Z,12.90
2018-02-24T08:20:09.167Z,12.82
2018-02-24T08:22:36.708Z,12.83
2018-02-24T08:25:06.084Z,13.63
2018-02-24T08:27:34.427Z,12.47
2018-02-24T08:30:02.679Z,13.63
2018-02-24T08:32:30.953Z,13.00
2018-02-24T08:34:59.261Z,13.43
2018-02-24T08:37:27.547Z,11.68
2018-02-24T08:39:55.808Z,11.85
2018-02-24T08:42:24.107Z,11.83
2018-02-24T08:44:52.374Z,12.83
2018-02-24T08:47:20.681Z,11.78
2018-02-24T08:49:48.948Z,11.08
2018-02-24T08:52:17.242Z,15.75
2018-02-24T08:54:45.512Z,11.03
2018-02-24T08:57:13.811Z,10.70
2018-02-24T08:59:42.076Z,12.02
2018-02-24T09:02:10.368Z,11.87
2018-02-24T09:04:38.670Z,11.78
2018-02-24T09:07:06.951Z,12.05
2018-02-24T09:09:36.044Z,11.90
2018-02-24T09:12:04.329Z,12.22
2018-02-24T09:14:32.618Z,12.23
2018-02-24T09:17:00.880Z,11.65
2018-02-24T09:19:29.204Z,10.38
2018-02-24T09:21:57.462Z,11.95
2018-02-24T09:24:25.723Z,12.98
2018-02-24T09:26:54.014Z,11.08
2018-02-24T09:29:22.308Z,11.78
2018-02-24T09:31:50.582Z,10.73
2018-02-24T09:34:18.875Z,11.43
2018-02-24T09:36:47.156Z,10.37
2018-02-24T09:39:15.462Z,11.78
2018-02-24T09:41:43.723Z,12.27
2018-02-24T09:44:12.020Z,11.40
2018-02-24T09:46:40.311Z,12.18
2018-02-24T09:49:08.571Z,12.83
2018-02-24T09:51:36.871Z,11.23
2018-02-24T09:54:05.978Z,11.30
2018-02-24T09:56:35.077Z,10.03
2018-02-24T09:59:03.380Z,11.50
2018-02-24T10:01:31.675Z,11.38
2018-02-24T10:03:59.946Z,11.18
2018-02-24T10:06:28.209Z,10.28
2018-02-24T10:08:56.512Z,11.27
2018-02-24T10:11:24.812Z,11.20
2018-02-24T10:13:53.085Z,10.63
2018-02-24T10:16:23.338Z,11.60
2018-02-24T10:18:51.664Z,10.07
2018-02-24T10:21:19.181Z,11.03
2018-02-24T10:23:47.495Z,11.58
2018-02-24T10:26:20.172Z,10.25
2018-02-24T10:28:48.474Z,9.48
2018-02-24T10:31:17.683Z,10.78
2018-02-24T10:33:45.976Z,11.30
2018-02-24T10:36:17.700Z,11.08
2018-02-24T10:38:45.954Z,9.82
2018-02-24T10:41:17.910Z,10.60
2018-02-24T10:43:46.198Z,9.88
2018-02-24T10:46:14.454Z,10.10
2018-02-24T10:48:42.769Z,10.53
2018-02-24T10:51:11.029Z,11.73
2018-02-24T10:53:39.301Z,10.32
2018-02-24T10:56:07.654Z,9.67
2018-02-24T10:58:36.574Z,10.23
2018-02-24T11:01:05.730Z,11.23
2018-02-24T11:03:34.028Z,11.08
2018-02-24T11:06:03.838Z,10.98
2018-02-24T11:08:32.142Z,11.30
2018-02-24T11:11:00.404Z,11.22
2018-02-24T11:13:28.709Z,10.68
2018-02-24T11:15:56.967Z,12.30
2018-02-24T11:18:25.282Z,10.52
2018-02-24T11:20:53.547Z,10.85
2018-02-24T11:23:21.816Z,10.10
2018-02-24T11:25:50.122Z,11.45
2018-02-24T11:28:18.394Z,10.77
2018-02-24T11:30:46.701Z,9.40
2018-02-24T11:33:14.993Z,11.98
2018-02-24T11:35:43.316Z,10.40
2018-02-24T11:38:11.579Z,10.04
2018-02-24T11:40:39.840Z,9.88
2018-02-24T11:43:08.144Z,11.70
2018-02-24T11:45:36.427Z,9.30
2018-02-24T11:48:05.350Z,9.92
2018-02-24T11:50:33.602Z,12.34
2018-02-24T11:53:03.868Z,71.62
2018-02-24T11:55:32.136Z,40.40
2018-02-24T11:58:00.446Z,22.88
2018-02-24T12:00:28.695Z,10.78
2018-02-24T12:02:56.221Z,10.62
2018-02-24T12:05:24.526Z,9.54
2018-02-24T12:07:52.820Z,9.30
2018-02-24T12:10:21.115Z,9.90
2018-02-24T12:12:49.381Z,10.68
2018-02-24T12:15:17.636Z,9.20
2018-02-24T12:17:45.953Z,10.00
2018-02-24T12:20:14.263Z,7.98
2018-02-24T12:22:42.518Z,7.56
2018-02-24T12:25:10.048Z,8.10
2018-02-24T12:27:38.322Z,9.18
2018-02-24T12:30:06.785Z,8.82
2018-02-24T12:32:36.227Z,7.34
2018-02-24T12:35:04.794Z,8.10
2018-02-24T12:37:33.052Z,8.12
2018-02-24T12:40:01.329Z,8.52
2018-02-24T12:42:29.619Z,8.42
2018-02-24T12:44:57.871Z,8.96
2018-02-24T12:47:26.151Z,8.24
2018-02-24T12:49:54.440Z,8.46
2018-02-24T12:52:21.941Z,7.78
2018-02-24T12:54:50.242Z,7.92
2018-02-24T12:57:18.495Z,7.84
2018-02-24T12:59:46.783Z,7.84
2018-02-24T13:02:15.086Z,7.20
2018-02-24T13:04:44.280Z,7.42
2018-02-24T13:07:12.577Z,8.20
2018-02-24T13:09:40.827Z,8.18
2018-02-24T13:12:09.114Z,7.30
2018-02-24T13:14:37.380Z,7.50
2018-02-24T13:17:06.324Z,6.88
2018-02-24T13:19:35.728Z,7.20
2018-02-24T13:22:05.134Z,8.40
2018-02-24T13:24:33.384Z,7.28
2018-02-24T13:27:01.684Z,6.34
2018-02-24T13:29:29.989Z,5.96
2018-02-24T13:31:58.252Z,6.56
2018-02-24T13:34:26.509Z,6.10
2018-02-24T13:36:54.803Z,6.44
2018-02-24T13:39:23.080Z,5.50
2018-02-24T13:41:51.322Z,5.60
2018-02-24T13:44:19.614Z,6.30
2018-02-24T13:46:47.862Z,5.78
2018-02-24T13:49:16.180Z,6.74
2018-02-24T13:51:44.426Z,5.82
2018-02-24T13:54:12.680Z,6.28
2018-02-24T13:56:40.972Z,7.10
2018-02-24T13:59:09.237Z,5.94
2018-02-24T14:01:37.527Z,5.82
2018-02-24T14:04:06.837Z,5.70
2018-02-24T14:06:34.352Z,5.60
2018-02-24T14:09:02.643Z,4.90
2018-02-24T14:11:30.941Z,6.30
2018-02-24T14:13:59.183Z,5.24
2018-02-24T14:16:27.485Z,5.98
2018-02-24T14:18:55.736Z,6.22
2018-02-24T14:21:24.019Z,5.80
2018-02-24T14:23:52.293Z,6.10
2018-02-24T14:26:20.555Z,5.86
2018-02-24T14:28:48.830Z,4.92
2018-02-24T14:31:17.120Z,6.00
2018-02-24T14:33:45.389Z,6.66
2018-02-24T14:36:13.684Z,5.80
2018-02-24T14:38:41.939Z,5.52
2018-02-24T14:41:10.222Z,6.02
2018-02-24T14:43:38.492Z,6.70
2018-02-24T14:46:06.779Z,6.66
2018-02-24T14:48:35.975Z,5.40
2018-02-24T14:51:04.965Z,5.20
2018-02-24T14:53:33.231Z,6.02
2018-02-24T14:56:01.490Z,5.38
2018-02-24T14:58:29.788Z,5.60
2018-02-24T15:00:58.054Z,4.18
2018-02-24T15:03:26.353Z,5.53
2018-02-24T15:05:54.632Z,6.02
2018-02-24T15:08:22.931Z,6.58
2018-02-24T15:10:51.224Z,5.00
2018-02-24T15:13:19.523Z,6.00
2018-02-24T15:15:47.787Z,6.03
2018-02-24T15:18:16.080Z,6.17
2018-02-24T15:20:44.344Z,5.50
2018-02-24T15:23:12.598Z,6.20
2018-02-24T15:25:40.902Z,7.18
2018-02-24T15:28:09.193Z,7.18
2018-02-24T15:30:36.715Z,6.38
2018-02-24T15:33:05.559Z,6.75
2018-02-24T15:35:33.859Z,6.35
2018-02-24T15:38:02.153Z,7.40
2018-02-24T15:40:30.449Z,6.40
2018-02-24T15:42:58.709Z,7.75
2018-02-24T15:45:27.007Z,6.68
2018-02-24T15:47:55.270Z,7.88
2018-02-24T15:50:23.545Z,8.73
2018-02-24T15:52:51.084Z,7.78
2018-02-24T15:55:19.361Z,7.38
2018-02-24T15:57:47.623Z,7.58
2018-02-24T16:00:15.912Z,7.55
2018-02-24T16:03:05.937Z,8.17
2018-02-24T16:05:34.842Z,8.45
2018-02-24T16:08:03.136Z,7.03
2018-02-24T16:10:31.416Z,8.73
2018-02-24T16:12:59.723Z,9.02
2018-02-24T16:15:27.997Z,7.83
2018-02-24T16:17:56.273Z,7.97
2018-02-24T16:20:24.563Z,7.83
2018-02-24T16:22:52.857Z,7.52
2018-02-24T16:25:20.354Z,7.52
2018-02-24T16:27:48.650Z,7.50
2018-02-24T16:30:16.916Z,7.43
2018-02-24T16:32:45.276Z,7.50
2018-02-24T16:35:16.755Z,8.73
2018-02-24T16:37:45.055Z,7.95
2018-02-24T16:40:13.360Z,9.25
2018-02-24T16:42:41.620Z,7.62
2018-02-24T16:45:09.900Z,7.48
2018-02-24T16:47:38.169Z,7.65
2018-02-24T16:50:06.823Z,8.78
2018-02-24T16:52:36.068Z,6.95
2018-02-24T16:55:05.228Z,7.00
2018-02-24T16:57:33.510Z,6.55
2018-02-24T17:00:01.762Z,5.98
2018-02-24T17:02:29.301Z,6.58
2018-02-24T17:04:57.570Z,6.70
2018-02-24T17:07:25.866Z,5.77
2018-02-24T17:09:54.130Z,6.15
2018-02-24T17:12:22.424Z,6.10
2018-02-24T17:14:51.663Z,6.65
2018-02-24T17:17:19.970Z,5.75
2018-02-24T17:19:48.248Z,6.88
2018-02-24T17:22:15.760Z,5.97
2018-02-24T17:24:47.678Z,6.28
2018-02-24T17:27:15.185Z,6.02
2018-02-24T17:29:43.545Z,5.60
2018-02-24T17:32:11.759Z,6.70
2018-02-24T17:34:40.922Z,5.78
2018-02-24T17:37:09.226Z,6.50
2018-02-24T17:39:37.483Z,5.72
2018-02-24T17:42:06.066Z,6.20
2018-02-24T17:44:35.231Z,7.48
2018-02-24T17:47:03.496Z,7.08
2018-02-24T17:49:31.808Z,6.67
2018-02-24T17:52:01.028Z,7.32
2018-02-24T17:54:29.294Z,7.53
2018-02-24T17:56:58.579Z,8.95
2018-02-24T17:59:26.886Z,6.50
2018-02-24T18:01:55.142Z,7.53
2018-02-24T18:04:23.416Z,7.62
2018-02-24T18:06:51.703Z,7.15
2018-02-24T18:09:19.999Z,8.42
2018-02-24T18:11:48.251Z,8.45
2018-02-24T18:14:16.531Z,7.65
2018-02-24T18:16:44.790Z,6.22
2018-02-24T18:19:13.083Z,6.83
2018-02-24T18:21:41.334Z,5.98
2018-02-24T18:24:08.856Z,5.78
2018-02-24T18:26:37.289Z,6.40
2018-02-24T18:29:06.048Z,5.88
2018-02-24T18:31:37.681Z,5.85
2018-02-24T18:34:05.776Z,5.25
2018-02-24T18:36:36.097Z,5.37
2018-02-24T18:39:04.400Z,6.18
2018-02-24T18:41:38.328Z,6.70
2018-02-24T18:44:06.624Z,5.50
2018-02-24T18:46:35.919Z,5.70
2018-02-24T18:49:04.862Z,5.30
2018-02-24T18:51:33.157Z,5.42
2018-02-24T18:54:01.420Z,5.20
2018-02-24T18:56:29.727Z,5.05
2018-02-24T18:58:57.979Z,5.07
2018-02-24T19:01:26.236Z,5.38
2018-02-24T19:03:54.536Z,4.88
2018-02-24T19:06:22.796Z,4.60
2018-02-24T19:08:51.077Z,4.60
2018-02-24T19:11:19.350Z,5.08
2018-02-24T19:13:47.655Z,5.07
2018-02-24T19:16:15.910Z,4.52
2018-02-24T19:18:44.168Z,4.98
2018-02-24T19:21:12.448Z,4.35
2018-02-24T19:23:40.737Z,5.43
2018-02-24T19:26:08.995Z,5.00
2018-02-24T19:28:37.292Z,6.30
2018-02-24T19:31:06.061Z,5.43
2018-02-24T19:33:34.399Z,5.10
2018-02-24T19:36:01.914Z,4.75
2018-02-24T19:38:30.211Z,6.15
2018-02-24T19:40:58.478Z,5.27
2018-02-24T19:43:26.791Z,5.37
2018-02-24T19:45:55.063Z,4.97
2018-02-24T19:48:23.316Z,6.25
2018-02-24T19:50:51.627Z,4.80
2018-02-24T19:53:19.896Z,5.40
2018-02-24T19:55:48.200Z,4.58
2018-02-24T19:58:16.494Z,4.45
2018-02-24T20:00:44.757Z,4.63
2018-02-24T20:03:13.057Z,4.40
2018-02-24T20:05:41.328Z,4.97
2018-02-24T20:08:09.616Z,4.95
2018-02-24T20:10:37.860Z,5.00
2018-02-24T20:13:06.871Z,4.50
2018-02-24T20:15:36.000Z,4.80
2018-02-24T20:18:04.986Z,4.45
2018-02-24T20:20:33.240Z,4.87
2018-02-24T20:23:01.526Z,5.27
2018-02-24T20:25:29.776Z,4.40
2018-02-24T20:27:58.072Z,4.98
2018-02-24T20:30:26.380Z,4.40
2018-02-24T20:32:54.609Z,4.33
2018-02-24T20:35:22.887Z,5.48
2018-02-24T20:37:51.144Z,4.73
2018-02-24T20:40:19.428Z,4.28
2018-02-24T20:42:46.916Z,4.07
2018-02-24T20:45:15.204Z,5.45
2018-02-24T20:47:43.480Z,4.65
2018-02-24T20:50:11.763Z,4.32
2018-02-24T20:52:40.027Z,4.27
2018-02-24T20:55:08.337Z,4.50
2018-02-24T20:57:36.601Z,5.00
2018-02-24T21:00:05.730Z,3.82
2018-02-24T21:02:33.978Z,3.68
2018-02-24T21:05:02.269Z,3.63
2018-02-24T21:07:30.523Z,4.45
2018-02-24T21:09:58.781Z,4.12
2018-02-24T21:12:27.076Z,4.37
2018-02-24T21:14:55.340Z,3.85
2018-02-24T21:17:23.636Z,4.27
2018-02-24T21:19:51.895Z,4.47
2018-02-24T21:22:20.188Z,3.90
2018-02-24T21:24:48.453Z,4.33
2018-02-24T21:27:16.747Z,4.72
2018-02-24T21:29:45.015Z,4.37
2018-02-24T21:32:13.324Z,4.42
2018-02-24T21:34:41.611Z,4.80
2018-02-24T21:37:09.871Z,4.17
2018-02-24T21:39:38.150Z,4.55
2018-02-24T21:42:06.807Z,4.13
2018-02-24T21:44:36.023Z,4.00
2018-02-24T21:47:04.939Z,3.92
2018-02-24T21:49:33.206Z,4.02
2018-02-24T21:52:01.503Z,4.32
2018-02-24T21:54:29.820Z,3.65
2018-02-24T21:56:58.098Z,4.30
2018-02-24T21:59:26.399Z,4.28
2018-02-24T22:01:54.653Z,4.00
2018-02-24T22:04:22.912Z,4.15
2018-02-24T22:06:50.443Z,4.08
2018-02-24T22:09:18.752Z,3.62
2018-02-24T22:11:47.031Z,4.13
2018-02-24T22:14:15.288Z,4.10
2018-02-24T22:16:43.567Z,4.15
2018-02-24T22:19:11.828Z,4.60
2018-02-24T22:21:40.125Z,4.45
2018-02-24T22:24:08.448Z,4.33
2018-02-24T22:26:36.766Z,3.70
2018-02-24T22:29:05.868Z,4.43
2018-02-24T22:31:34.889Z,3.60
2018-02-24T22:34:03.176Z,5.25
2018-02-24T22:36:31.441Z,5.18
2018-02-24T22:38:59.732Z,3.62
2018-02-24T22:41:28.022Z,4.10
2018-02-24T22:43:56.269Z,4.27
2018-02-24T22:46:24.555Z,5.77
2018-02-24T22:48:58.417Z,3.67
2018-02-24T22:51:26.695Z,4.23
2018-02-24T22:53:54.960Z,4.22
2018-02-24T22:56:22.491Z,4.98
2018-02-24T22:58:50.752Z,3.65
2018-02-24T23:01:19.012Z,4.25
2018-02-24T23:03:47.303Z,4.33
2018-02-24T23:06:15.555Z,4.15
2018-02-24T23:08:43.830Z,4.07
2018-02-24T23:11:11.314Z,3.95
2018-02-24T23:13:39.620Z,4.63
2018-02-24T23:16:07.879Z,5.30
2018-02-24T23:18:37.543Z,4.28
2018-02-24T23:21:06.641Z,5.80
2018-02-24T23:23:35.876Z,5.32
2018-02-24T23:26:04.826Z,4.53
2018-02-24T23:28:33.100Z,4.42
2018-02-24T23:31:01.403Z,4.30
2018-02-24T23:33:28.885Z,4.17
2018-02-24T23:35:57.190Z,3.77
2018-02-24T23:38:25.452Z,5.03
2018-02-24T23:40:53.776Z,4.60
2018-02-24T23:43:22.075Z,4.15
2018-02-24T23:45:50.331Z,5.10
2018-02-24T23:48:18.641Z,4.33
2018-02-24T23:50:46.957Z,4.22
2018-02-24T23:53:15.215Z,4.20
2018-02-24T23:55:43.502Z,4.25
2018-02-24T23:58:11.768Z,4.43
